createdAt,value
2022-10-06T00:01:06.727Z,6.25
2022-10-06T00:03:33.778Z,4.75
2022-10-06T00:06:01.761Z,5.93
2022-10-06T00:08:31.183Z,5.05
2022-10-06T00:10:58.056Z,5.30
2022-10-06T00:13:25.099Z,6.28
2022-10-06T00:15:51.803Z,4.30
2022-10-06T00:18:18.521Z,5.13
2022-10-06T00:20:45.333Z,6.15
2022-10-06T00:23:11.971Z,4.95
2022-10-06T00:25:38.671Z,6.80
2022-10-06T00:28:05.360Z,5.28
2022-10-06T00:30:32.036Z,5.75
2022-10-06T00:33:01.069Z,5.50
2022-10-06T00:35:34.201Z,4.50
2022-10-06T00:38:01.834Z,4.75
2022-10-06T00:40:29.139Z,6.22
2022-10-06T00:43:05.406Z,4.40
2022-10-06T00:45:38.318Z,10.70
2022-10-06T00:48:12.654Z,8.70
2022-10-06T00:50:40.156Z,5.65
2022-10-06T00:53:07.714Z,6.97
2022-10-06T00:55:34.523Z,6.22
2022-10-06T00:58:01.492Z,8.25
2022-10-06T01:00:28.658Z,8.18
2022-10-06T01:03:11.820Z,9.57
2022-10-06T01:05:46.818Z,6.47
2022-10-06T01:08:14.184Z,4.10
2022-10-06T01:10:40.824Z,9.73
2022-10-06T01:13:10.479Z,6.55
2022-10-06T01:15:42.298Z,9.02
2022-10-06T01:18:15.111Z,5.15
2022-10-06T01:20:47.134Z,6.97
2022-10-06T01:23:13.900Z,5.15
2022-10-06T01:25:40.965Z,5.60
2022-10-06T01:28:09.493Z,4.15
2022-10-06T01:30:54.794Z,6.65
2022-10-06T01:33:22.556Z,4.85
2022-10-06T01:35:51.181Z,5.05
2022-10-06T01:38:18.265Z,4.38
2022-10-06T01:40:45.728Z,5.55
2022-10-06T01:43:12.681Z,3.65
2022-10-06T01:45:39.648Z,4.97
2022-10-06T01:48:06.384Z,6.65
2022-10-06T01:50:33.073Z,6.97
2022-10-06T01:52:59.805Z,6.00
2022-10-06T01:55:26.754Z,4.65
2022-10-06T01:57:53.600Z,4.85
2022-10-06T02:00:20.349Z,4.18
2022-10-06T02:02:46.978Z,4.45
2022-10-06T02:05:14.628Z,6.13
2022-10-06T02:07:41.515Z,5.10
2022-10-06T02:10:08.514Z,4.15
2022-10-06T02:12:35.447Z,4.05
2022-10-06T02:15:02.220Z,7.65
2022-10-06T02:17:29.441Z,5.55
2022-10-06T02:19:56.084Z,7.20
2022-10-06T02:22:22.766Z,4.78
2022-10-06T02:24:49.389Z,5.75
2022-10-06T02:27:16.006Z,5.63
2022-10-06T02:29:42.662Z,6.65
2022-10-06T02:32:09.286Z,4.50
2022-10-06T02:34:36.013Z,4.47
2022-10-06T02:37:02.649Z,4.75
2022-10-06T02:39:29.283Z,6.85
2022-10-06T02:41:55.984Z,7.00
2022-10-06T02:44:25.019Z,8.73
2022-10-06T02:46:52.804Z,5.82
2022-10-06T02:49:19.763Z,4.18
2022-10-06T02:51:46.653Z,7.35
2022-10-06T02:54:13.263Z,4.80
2022-10-06T02:56:39.886Z,3.42
2022-10-06T02:59:06.585Z,4.32
2022-10-06T03:01:33.226Z,4.93
2022-10-06T03:03:59.946Z,5.00
2022-10-06T03:06:29.586Z,6.20
2022-10-06T03:08:57.810Z,5.55
2022-10-06T03:11:26.841Z,7.30
2022-10-06T03:13:54.232Z,6.10
2022-10-06T03:16:25.709Z,8.73
2022-10-06T03:18:54.687Z,5.38
2022-10-06T03:21:23.740Z,4.78
2022-10-06T03:23:52.245Z,9.15
2022-10-06T03:26:21.431Z,6.30
2022-10-06T03:28:48.447Z,7.60
2022-10-06T03:31:16.121Z,5.40
2022-10-06T03:33:42.919Z,7.25
2022-10-06T03:36:21.288Z,4.93
2022-10-06T03:38:48.317Z,5.68
2022-10-06T03:41:22.334Z,6.50
2022-10-06T03:43:50.506Z,5.22
2022-10-06T03:46:19.885Z,8.88
2022-10-06T03:48:48.383Z,5.55
2022-10-06T03:51:17.821Z,4.25
2022-10-06T03:53:46.068Z,7.53
2022-10-06T03:56:19.282Z,9.93
2022-10-06T03:58:49.745Z,3.78
2022-10-06T04:01:26.495Z,6.85
2022-10-06T04:03:55.364Z,4.32
2022-10-06T04:06:23.220Z,6.82
2022-10-06T04:08:51.475Z,13.35
2022-10-06T04:11:21.752Z,4.90
2022-10-06T04:16:20.554Z,10.75
2022-10-06T04:18:50.684Z,6.35
2022-10-06T04:21:18.049Z,6.70
2022-10-06T04:26:38.207Z,3.88
2022-10-06T04:29:05.156Z,3.90
2022-10-06T04:31:37.179Z,5.60
2022-10-06T04:34:05.619Z,4.78
2022-10-06T04:36:41.266Z,7.00
2022-10-06T04:39:10.233Z,7.43
2022-10-06T04:41:39.295Z,5.72
2022-10-06T04:44:07.116Z,5.68
2022-10-06T04:46:43.757Z,6.07
2022-10-06T04:49:17.906Z,2.55
2022-10-06T04:51:46.584Z,3.20
2022-10-06T04:54:13.332Z,2.25
2022-10-06T04:56:39.944Z,3.90
2022-10-06T04:59:06.594Z,2.00
2022-10-06T05:01:35.595Z,4.07
2022-10-06T05:04:04.021Z,2.15
2022-10-06T05:06:39.222Z,3.33
2022-10-06T05:09:08.988Z,2.25
2022-10-06T05:11:35.960Z,2.88
2022-10-06T05:14:02.689Z,1.77
2022-10-06T05:16:31.282Z,4.20
2022-10-06T05:18:58.734Z,2.65
2022-10-06T05:21:28.210Z,4.20
2022-10-06T05:23:54.955Z,2.83
2022-10-06T05:26:24.239Z,3.47
2022-10-06T05:28:50.974Z,2.58
2022-10-06T05:31:23.032Z,5.05
2022-10-06T05:33:49.822Z,1.27
2022-10-06T05:36:19.025Z,2.25
2022-10-06T05:38:46.010Z,2.22
2022-10-06T05:41:24.369Z,2.88
2022-10-06T05:43:51.564Z,1.30
2022-10-06T05:46:24.918Z,2.97
2022-10-06T05:48:55.589Z,3.20
2022-10-06T05:51:30.106Z,0.80
2022-10-06T05:53:57.808Z,4.65
2022-10-06T05:56:35.601Z,2.50
2022-10-06T05:59:02.537Z,3.55
2022-10-06T06:01:31.422Z,2.15
2022-10-06T06:04:03.401Z,2.38
2022-10-06T06:06:33.284Z,1.95
2022-10-06T06:09:09.257Z,1.85
2022-10-06T06:11:38.710Z,3.55
2022-10-06T06:14:10.351Z,1.67
2022-10-06T06:16:39.047Z,4.38
2022-10-06T06:19:07.866Z,2.47
2022-10-06T06:21:34.669Z,2.25
2022-10-06T06:24:03.032Z,3.47
2022-10-06T06:26:32.364Z,1.10
2022-10-06T06:29:03.880Z,3.97
2022-10-06T06:31:33.149Z,4.22
2022-10-06T06:34:02.689Z,2.65
2022-10-06T06:36:38.776Z,2.22
2022-10-06T06:39:10.689Z,3.80
2022-10-06T06:41:39.570Z,1.23
2022-10-06T06:44:08.378Z,2.17
2022-10-06T06:49:07.508Z,2.92
2022-10-06T06:51:40.405Z,2.85
2022-10-06T06:54:08.806Z,1.10
2022-10-06T06:56:36.382Z,3.78
2022-10-06T06:59:10.797Z,4.05
2022-10-06T07:01:44.489Z,1.77
2022-10-06T07:04:12.972Z,3.70
2022-10-06T07:06:40.641Z,4.70
2022-10-06T07:09:08.412Z,1.52
2022-10-06T07:11:39.796Z,2.67
2022-10-06T07:14:10.294Z,2.30
2022-10-06T07:16:55.525Z,3.63
2022-10-06T07:19:40.524Z,8.05
2022-10-06T07:22:25.698Z,5.13
2022-10-06T07:25:11.680Z,4.53
2022-10-06T07:27:51.000Z,4.07
2022-10-06T07:30:20.350Z,2.05
2022-10-06T07:32:48.389Z,5.43
2022-10-06T07:35:16.782Z,4.00
2022-10-06T07:37:43.517Z,4.70
2022-10-06T07:40:10.717Z,5.38
2022-10-06T07:45:39.623Z,1.95
2022-10-06T07:48:20.204Z,3.38
2022-10-06T07:50:49.175Z,5.20
2022-10-06T07:53:17.239Z,3.08
2022-10-06T07:55:46.397Z,3.60
2022-10-06T07:58:17.175Z,6.88
2022-10-06T08:00:44.921Z,2.20
2022-10-06T08:03:14.633Z,1.92
2022-10-06T08:05:41.253Z,5.45
2022-10-06T08:08:07.827Z,2.97
2022-10-06T08:10:34.475Z,2.45
2022-10-06T08:13:05.115Z,4.85
2022-10-06T08:15:31.916Z,4.78
2022-10-06T08:18:02.548Z,4.72
2022-10-06T08:20:30.420Z,4.80
2022-10-06T08:22:57.112Z,10.30
2022-10-06T08:25:23.730Z,4.22
2022-10-06T08:27:53.531Z,4.10
2022-10-06T08:30:20.634Z,5.20
2022-10-06T08:32:47.792Z,7.55
2022-10-06T08:35:14.632Z,4.53
2022-10-06T08:37:41.536Z,7.85
2022-10-06T08:40:14.368Z,8.35
2022-10-06T08:42:44.217Z,5.75
2022-10-06T08:45:37.664Z,7.20
2022-10-06T08:48:14.089Z,3.85
2022-10-06T08:51:08.466Z,6.00
2022-10-06T08:53:39.419Z,7.80
2022-10-06T08:56:17.982Z,5.07
2022-10-06T08:58:53.847Z,7.32
2022-10-06T09:01:24.059Z,4.85
2022-10-06T09:06:28.342Z,6.57
2022-10-06T09:08:59.531Z,5.47
2022-10-06T09:11:46.538Z,7.43
2022-10-06T09:14:26.822Z,5.72
2022-10-06T09:22:06.986Z,4.90
2022-10-06T09:24:40.507Z,8.40
2022-10-06T09:27:23.141Z,4.63
2022-10-06T09:29:51.285Z,6.45
2022-10-06T09:32:20.713Z,9.32
2022-10-06T09:34:52.006Z,5.27
2022-10-06T09:37:19.322Z,6.45
2022-10-06T09:39:50.242Z,8.23
2022-10-06T09:42:35.489Z,7.55
2022-10-06T09:45:16.776Z,7.47
2022-10-06T09:47:45.338Z,7.57
2022-10-06T09:50:25.613Z,4.28
2022-10-06T09:52:59.183Z,6.88
2022-10-06T09:55:29.065Z,4.75
2022-10-06T09:57:57.344Z,10.52
2022-10-06T10:00:32.110Z,8.20
2022-10-06T10:03:04.930Z,5.80
2022-10-06T10:05:37.282Z,4.63
2022-10-06T10:08:12.904Z,7.35
2022-10-06T10:10:40.549Z,6.65
2022-10-06T10:13:22.494Z,5.05
2022-10-06T10:15:53.729Z,6.55
2022-10-06T10:18:28.807Z,6.85
2022-10-06T10:21:00.545Z,7.95
2022-10-06T10:23:33.117Z,6.45
2022-10-06T10:26:08.165Z,5.10
2022-10-06T10:29:06.694Z,6.40
2022-10-06T10:32:00.700Z,5.82
2022-10-06T10:34:54.210Z,7.25
2022-10-06T10:37:44.067Z,7.13
2022-10-06T10:40:29.445Z,3.28
2022-10-06T10:43:04.443Z,10.07
2022-10-06T10:45:35.973Z,5.80
2022-10-06T10:48:19.134Z,5.28
2022-10-06T10:51:27.448Z,4.10
2022-10-06T10:54:27.882Z,4.40
2022-10-06T10:56:54.626Z,8.65
2022-10-06T10:59:23.851Z,6.03
2022-10-06T11:01:56.491Z,3.22
2022-10-06T11:04:23.286Z,4.55
2022-10-06T11:06:55.778Z,6.47
2022-10-06T11:09:40.527Z,4.78
2022-10-06T11:12:44.499Z,6.38
2022-10-06T11:15:48.058Z,6.18
2022-10-06T11:18:35.364Z,7.15
2022-10-06T11:21:21.757Z,7.07
2022-10-06T11:23:58.697Z,6.25
2022-10-06T11:27:01.062Z,10.75
2022-10-06T11:29:52.862Z,7.88
2022-10-06T11:32:25.521Z,6.30
2022-10-06T11:34:52.826Z,7.28
2022-10-06T11:37:45.051Z,5.07
2022-10-06T11:40:38.442Z,6.32
2022-10-06T11:43:17.306Z,5.60
2022-10-06T11:45:55.209Z,4.28
2022-10-06T11:48:29.768Z,6.13
2022-10-06T11:51:16.293Z,4.80
2022-10-06T11:53:46.685Z,5.60
2022-10-06T11:56:19.135Z,6.50
2022-10-06T11:58:54.201Z,6.88
2022-10-06T12:01:33.818Z,6.65
2022-10-06T12:04:09.618Z,6.43
2022-10-06T12:06:42.034Z,6.00
2022-10-06T12:09:32.153Z,7.07
2022-10-06T12:12:21.787Z,9.65
2022-10-06T12:18:02.817Z,7.15
2022-10-06T12:20:53.272Z,6.60
2022-10-06T12:23:40.841Z,5.47
2022-10-06T12:26:32.448Z,6.30
2022-10-06T12:29:35.893Z,9.13
2022-10-06T12:32:40.313Z,6.18
2022-10-06T12:35:24.720Z,7.10
2022-10-06T12:37:54.701Z,7.85
2022-10-06T12:40:46.994Z,2.17
2022-10-06T12:43:20.832Z,5.72
2022-10-06T12:45:57.704Z,5.97
2022-10-06T12:48:41.937Z,3.70
2022-10-06T12:51:39.816Z,6.35
2022-10-06T12:54:20.312Z,8.70
2022-10-06T12:57:13.457Z,5.47
2022-10-06T12:59:40.927Z,6.00
2022-10-06T13:02:14.521Z,7.47
2022-10-06T13:04:54.087Z,5.43
2022-10-06T13:07:27.853Z,3.58
2022-10-06T13:10:14.426Z,5.80
2022-10-06T13:12:47.225Z,4.45
2022-10-06T13:15:24.051Z,4.57
2022-10-06T13:17:59.070Z,5.53
2022-10-06T13:20:40.553Z,3.40
2022-10-06T13:26:25.039Z,4.95
2022-10-06T13:28:53.579Z,5.88
2022-10-06T13:31:31.381Z,5.05
2022-10-06T13:34:13.532Z,5.63
2022-10-06T13:36:42.820Z,2.30
2022-10-06T13:39:20.780Z,3.83
2022-10-06T13:41:57.006Z,7.10
2022-10-06T13:44:35.807Z,7.63
2022-10-06T13:47:20.350Z,4.97
2022-10-06T13:49:56.158Z,5.82
2022-10-06T13:52:33.104Z,6.70
2022-10-06T13:55:01.918Z,7.32
2022-10-06T13:57:34.941Z,5.78
2022-10-06T14:00:24.349Z,8.80
2022-10-06T14:03:08.306Z,6.97
2022-10-06T14:05:37.760Z,7.43
2022-10-06T14:08:15.724Z,12.33
2022-10-06T14:10:50.267Z,8.27
2022-10-06T14:13:18.775Z,9.18
2022-10-06T14:15:49.369Z,12.73
2022-10-06T14:18:39.004Z,11.13
2022-10-06T14:21:29.150Z,7.60
2022-10-06T14:23:56.661Z,8.48
2022-10-06T14:26:29.753Z,6.85
2022-10-06T14:28:57.143Z,5.90
2022-10-06T14:31:25.625Z,5.40
2022-10-06T14:33:53.500Z,5.50
2022-10-06T14:36:23.945Z,5.45
2022-10-06T14:38:51.587Z,5.80
2022-10-06T14:41:19.561Z,5.85
2022-10-06T14:43:49.327Z,4.70
2022-10-06T14:46:15.992Z,5.03
2022-10-06T14:48:42.767Z,8.27
2022-10-06T14:51:10.383Z,7.53
2022-10-06T14:53:39.424Z,5.85
2022-10-06T14:56:13.800Z,6.07
2022-10-06T14:58:44.061Z,4.05
2022-10-06T15:03:39.121Z,4.57
2022-10-06T15:06:29.588Z,5.65
2022-10-06T15:08:59.123Z,7.78
2022-10-06T15:11:27.847Z,4.13
2022-10-06T15:13:56.935Z,8.30
2022-10-06T15:16:23.720Z,5.97
2022-10-06T15:18:51.371Z,3.55
2022-10-06T15:21:18.842Z,5.75
2022-10-06T15:23:46.249Z,6.00
2022-10-06T15:26:31.660Z,6.60
2022-10-06T15:29:01.299Z,4.63
2022-10-06T15:31:30.982Z,9.40
2022-10-06T15:34:00.134Z,7.38
2022-10-06T15:36:28.734Z,6.60
2022-10-06T15:38:57.803Z,6.30
2022-10-06T15:41:24.885Z,7.05
2022-10-06T15:43:57.014Z,6.45
2022-10-06T15:46:27.168Z,5.90
2022-10-06T15:51:22.628Z,6.53
2022-10-06T15:53:50.466Z,5.53
2022-10-06T15:56:17.445Z,5.10
2022-10-06T15:58:44.864Z,4.38
2022-10-06T16:01:31.455Z,5.68
2022-10-06T16:04:02.094Z,4.85
2022-10-06T16:06:49.405Z,7.40
2022-10-06T16:09:19.057Z,7.60
2022-10-06T16:11:47.161Z,6.35
2022-10-06T16:14:15.075Z,5.10
2022-10-06T16:16:43.875Z,7.88
2022-10-06T16:19:10.883Z,7.95
2022-10-06T16:21:40.062Z,9.20
2022-10-06T16:24:07.188Z,9.70
2022-10-06T16:26:34.021Z,4.43
2022-10-06T16:29:00.771Z,5.80
2022-10-06T16:31:27.692Z,13.05
2022-10-06T16:33:54.384Z,8.13
2022-10-06T16:36:21.775Z,8.50
2022-10-06T16:38:52.836Z,10.30
2022-10-06T16:41:20.177Z,11.88
2022-10-06T16:43:49.081Z,6.43
2022-10-06T16:46:24.766Z,13.65
2022-10-06T16:48:53.860Z,10.70
2022-10-06T16:51:23.475Z,9.68
2022-10-06T16:53:56.541Z,10.45
2022-10-06T16:56:26.971Z,6.78
2022-10-06T16:58:58.712Z,10.18
2022-10-06T17:01:27.876Z,8.60
2022-10-06T17:04:05.397Z,9.07
2022-10-06T17:06:43.691Z,7.97
2022-10-06T17:09:15.620Z,6.47
2022-10-06T17:11:53.639Z,7.03
2022-10-06T17:14:21.523Z,7.57
2022-10-06T17:16:50.743Z,7.95
2022-10-06T17:19:19.374Z,6.93
2022-10-06T17:21:48.767Z,8.60
2022-10-06T17:24:18.320Z,15.00
2022-10-06T17:26:47.336Z,16.45
2022-10-06T17:29:18.673Z,17.92
2022-10-06T17:31:46.740Z,19.45
2022-10-06T17:34:21.977Z,13.05
2022-10-06T17:36:51.880Z,10.75
2022-10-06T17:39:21.406Z,12.88
2022-10-06T17:41:49.957Z,12.60
2022-10-06T17:44:22.942Z,17.80
2022-10-06T17:46:52.898Z,14.52
2022-10-06T17:49:21.134Z,10.80
2022-10-06T17:51:49.126Z,19.98
2022-10-06T17:54:19.913Z,14.10
2022-10-06T17:56:49.050Z,22.23
2022-10-06T17:59:22.261Z,18.25
2022-10-06T18:01:51.373Z,15.82
2022-10-06T18:04:18.791Z,15.70
2022-10-06T18:06:47.263Z,19.25
2022-10-06T18:09:15.457Z,13.52
2022-10-06T18:11:43.440Z,14.15
2022-10-06T18:14:18.106Z,13.43
2022-10-06T18:16:57.547Z,16.90
2022-10-06T18:19:28.537Z,13.30
2022-10-06T18:22:14.012Z,15.50
2022-10-06T18:24:40.674Z,17.08
2022-10-06T18:27:08.089Z,12.55
2022-10-06T18:29:37.365Z,13.85
2022-10-06T18:32:53.402Z,14.35
2022-10-06T18:37:39.665Z,16.80
2022-10-06T18:40:08.885Z,16.52
2022-10-06T18:42:35.858Z,13.20
2022-10-06T18:45:21.448Z,9.57
2022-10-06T18:48:07.069Z,15.68
2022-10-06T18:50:35.185Z,20.15
2022-10-06T18:53:04.090Z,13.93
2022-10-06T18:55:31.605Z,17.88
2022-10-06T18:57:59.129Z,11.93
2022-10-06T19:00:25.971Z,14.85
2022-10-06T19:02:54.882Z,12.63
2022-10-06T19:05:21.614Z,13.73
2022-10-06T19:07:48.270Z,15.00
2022-10-06T19:10:14.881Z,9.20
2022-10-06T19:12:41.588Z,15.25
2022-10-06T19:15:09.983Z,12.52
2022-10-06T19:17:39.741Z,15.13
2022-10-06T19:20:07.114Z,12.80
2022-10-06T19:22:34.256Z,13.63
2022-10-06T19:25:01.085Z,19.75
2022-10-06T19:27:30.198Z,10.70
2022-10-06T19:29:57.053Z,14.70
2022-10-06T19:32:27.429Z,12.65
2022-10-06T19:34:58.850Z,9.63
2022-10-06T19:37:28.435Z,10.93
2022-10-06T19:39:55.198Z,8.90
2022-10-06T19:42:40.514Z,11.20
2022-10-06T19:45:09.582Z,12.88
2022-10-06T19:47:36.249Z,13.00
2022-10-06T19:50:10.419Z,10.40
2022-10-06T19:52:38.603Z,8.75
2022-10-06T19:55:05.563Z,12.07
2022-10-06T19:57:33.631Z,13.65
2022-10-06T20:00:00.541Z,14.98
2022-10-06T20:02:28.822Z,12.05
2022-10-06T20:04:56.091Z,10.82
2022-10-06T20:07:25.514Z,13.38
2022-10-06T20:09:52.160Z,12.40
2022-10-06T20:12:24.332Z,10.75
2022-10-06T20:14:52.780Z,9.07
2022-10-06T20:17:20.675Z,10.52
2022-10-06T20:19:47.280Z,9.43
2022-10-06T20:22:13.900Z,11.95
2022-10-06T20:24:41.128Z,12.48
2022-10-06T20:27:08.774Z,14.40
2022-10-06T20:29:35.505Z,10.70
2022-10-06T20:32:02.368Z,10.77
2022-10-06T20:34:31.909Z,12.77
2022-10-06T20:37:00.119Z,9.55
2022-10-06T20:39:45.536Z,7.85
2022-10-06T20:42:15.268Z,8.85
2022-10-06T20:44:43.282Z,16.20
2022-10-06T20:47:11.230Z,11.98
2022-10-06T20:49:37.845Z,13.95
2022-10-06T20:52:05.856Z,14.57
2022-10-06T20:54:35.550Z,10.70
2022-10-06T20:57:04.812Z,12.25
2022-10-06T20:59:32.188Z,12.60
2022-10-06T21:02:01.753Z,8.73
2022-10-06T21:04:29.235Z,11.30
2022-10-06T21:06:56.123Z,10.57
2022-10-06T21:09:24.529Z,8.38
2022-10-06T21:11:51.791Z,9.82
2022-10-06T21:14:19.249Z,12.82
2022-10-06T21:16:48.028Z,7.03
2022-10-06T21:19:19.470Z,7.30
2022-10-06T21:21:52.053Z,7.60
2022-10-06T21:24:19.566Z,7.65
2022-10-06T21:26:46.504Z,8.25
2022-10-06T21:29:15.534Z,13.15
2022-10-06T21:31:43.378Z,13.73
2022-10-06T21:34:10.711Z,10.20
2022-10-06T21:36:37.626Z,10.52
2022-10-06T21:39:05.846Z,9.10
2022-10-06T21:41:38.669Z,9.20
2022-10-06T21:44:08.282Z,9.15
2022-10-06T21:46:41.088Z,12.05
2022-10-06T21:49:11.250Z,9.13
2022-10-06T21:51:39.144Z,11.57
2022-10-06T21:54:06.423Z,13.73
2022-10-06T21:56:34.096Z,12.27
2022-10-06T21:59:00.991Z,9.15
2022-10-06T22:01:33.835Z,8.40
2022-10-06T22:04:01.561Z,10.65
2022-10-06T22:06:30.288Z,16.35
2022-10-06T22:08:59.000Z,10.65
2022-10-06T22:11:28.305Z,9.90
2022-10-06T22:13:57.555Z,15.00
2022-10-06T22:16:26.553Z,10.05
2022-10-06T22:18:53.515Z,9.30
2022-10-06T22:21:25.832Z,7.40
2022-10-06T22:24:02.458Z,13.23
2022-10-06T22:26:31.175Z,7.47
2022-10-06T22:28:58.551Z,11.88
2022-10-06T22:31:27.455Z,9.70
2022-10-06T22:33:59.600Z,9.10
2022-10-06T22:36:27.818Z,11.40
2022-10-06T22:38:56.090Z,11.80
2022-10-06T22:41:23.566Z,15.13
2022-10-06T22:43:57.312Z,15.68
2022-10-06T22:46:28.942Z,20.08
2022-10-06T22:48:56.302Z,20.25
2022-10-06T22:51:23.445Z,19.40
2022-10-06T22:53:57.988Z,23.50
2022-10-06T22:56:29.301Z,23.10
2022-10-06T22:58:59.587Z,25.70
2022-10-06T23:01:27.833Z,22.73
2022-10-06T23:03:55.662Z,24.95
2022-10-06T23:06:22.430Z,24.23
2022-10-06T23:08:49.116Z,18.33
2022-10-06T23:11:18.649Z,22.85
2022-10-06T23:13:46.046Z,29.00
2022-10-06T23:16:16.274Z,20.90
2022-10-06T23:18:44.431Z,23.60
2022-10-06T23:21:19.125Z,21.77
2022-10-06T23:23:46.551Z,21.33
2022-10-06T23:26:16.001Z,22.45
2022-10-06T23:28:43.267Z,23.50
2022-10-06T23:31:11.273Z,24.95
2022-10-06T23:33:38.604Z,20.42
2022-10-06T23:36:10.530Z,19.48
2022-10-06T23:38:38.414Z,20.83
2022-10-06T23:41:06.590Z,19.38
2022-10-06T23:43:33.611Z,20.88
2022-10-06T23:46:00.892Z,16.83
2022-10-06T23:48:27.843Z,23.20
2022-10-06T23:51:15.559Z,15.27
2022-10-06T23:53:43.145Z,15.80
2022-10-06T23:56:10.199Z,14.55
2022-10-06T23:58:37.323Z,14.00
